createdAt,value
2024-03-26T00:01:08.100Z,99966.13
2024-03-26T00:03:36.187Z,99962.22
2024-03-26T00:06:15.453Z,99952.53
2024-03-26T00:08:42.922Z,99952.16
2024-03-26T00:11:13.142Z,99950.25
2024-03-26T00:13:40.597Z,99945.94
2024-03-26T00:16:08.738Z,99940.59
2024-03-26T00:18:36.188Z,99943.06
2024-03-26T00:21:03.912Z,99933.19
2024-03-26T00:23:31.814Z,99939.97
2024-03-26T00:25:59.183Z,99932.78
2024-03-26T00:28:29.050Z,99933.59
2024-03-26T00:30:56.765Z,99932.38
2024-03-26T00:33:24.101Z,99926.25
2024-03-26T00:35:51.685Z,99921.28
2024-03-26T00:38:19.059Z,99917.97
2024-03-26T00:40:47.122Z,99917.56
2024-03-26T00:43:14.456Z,99916.34
2024-03-26T00:45:45.803Z,99911.41
2024-03-26T00:48:21.599Z,99904.41
2024-03-26T00:50:49.410Z,99901.13
2024-03-26T00:53:16.812Z,99900.72
2024-03-26T00:55:44.273Z,99896.19
2024-03-26T00:58:12.104Z,99900.91
2024-03-26T01:00:39.754Z,99893.72
2024-03-26T01:03:10.934Z,99882.63
2024-03-26T01:05:38.629Z,99881.59
2024-03-26T01:08:08.002Z,99874.81
2024-03-26T01:10:35.477Z,99866.38
2024-03-26T01:13:03.001Z,99868.63
2024-03-26T01:15:31.385Z,99862.47
2024-03-26T01:18:01.138Z,99860.81
2024-03-26T01:20:31.307Z,99856.50
2024-03-26T01:22:59.040Z,99843.53
2024-03-26T01:25:26.415Z,99839.44
2024-03-26T01:27:54.399Z,99840.25
2024-03-26T01:30:22.639Z,99844.16
2024-03-26T01:32:50.106Z,99836.16
2024-03-26T01:35:17.838Z,99832.09
2024-03-26T01:37:48.572Z,99830.81
2024-03-26T01:40:16.190Z,99828.59
2024-03-26T01:42:43.764Z,99826.75
2024-03-26T01:45:11.402Z,99820.38
2024-03-26T01:47:39.769Z,99808.88
2024-03-26T01:50:16.166Z,99813.00
2024-03-26T01:52:48.752Z,99810.94
2024-03-26T01:55:19.454Z,99798.81
2024-03-26T01:57:49.682Z,99803.75
2024-03-26T02:00:21.627Z,99802.09
2024-03-26T02:02:54.067Z,99789.16
2024-03-26T02:05:21.506Z,99794.50
2024-03-26T02:07:52.316Z,99787.50
2024-03-26T02:10:20.991Z,99795.72
2024-03-26T02:12:49.864Z,99781.13
2024-03-26T02:15:17.287Z,99777.84
2024-03-26T02:17:44.675Z,99783.59
2024-03-26T02:20:13.664Z,99770.06
2024-03-26T02:22:41.315Z,99773.75
2024-03-26T02:25:12.029Z,99761.00
2024-03-26T02:27:41.885Z,99757.94
2024-03-26T02:30:12.475Z,99758.13
2024-03-26T02:32:39.895Z,99757.13
2024-03-26T02:35:08.469Z,99752.38
2024-03-26T02:37:35.892Z,99747.88
2024-03-26T02:40:04.865Z,99738.41
2024-03-26T02:42:33.810Z,99741.28
2024-03-26T02:45:04.391Z,99738.00
2024-03-26T02:47:32.369Z,99738.44
2024-03-26T02:49:59.730Z,99732.31
2024-03-26T02:52:27.128Z,99725.31
2024-03-26T02:55:02.595Z,99726.13
2024-03-26T02:57:29.948Z,99723.47
2024-03-26T02:59:57.430Z,99718.75
2024-03-26T03:02:27.316Z,99708.06
2024-03-26T03:04:54.812Z,99708.69
2024-03-26T03:07:24.100Z,99696.16
2024-03-26T03:09:51.435Z,99695.34
2024-03-26T03:12:18.783Z,99684.66
2024-03-26T03:14:46.574Z,99676.44
2024-03-26T03:17:13.940Z,99681.19
2024-03-26T03:19:44.124Z,99671.94
2024-03-26T03:22:12.607Z,99658.59
2024-03-26T03:24:40.951Z,99661.06
2024-03-26T03:27:08.312Z,99659.00
2024-03-26T03:29:35.747Z,99642.56
2024-03-26T03:32:04.468Z,99642.38
2024-03-26T03:34:32.518Z,99641.94
2024-03-26T03:37:14.842Z,99635.38
2024-03-26T03:39:42.265Z,99639.28
2024-03-26T03:42:10.204Z,99640.31
2024-03-26T03:44:38.698Z,99629.25
2024-03-26T03:47:06.818Z,99630.06
2024-03-26T03:49:34.599Z,99626.56
2024-03-26T03:52:05.438Z,99634.16
2024-03-26T03:54:33.236Z,99624.31
2024-03-26T03:57:00.622Z,99621.44
2024-03-26T03:59:28.035Z,99610.56
2024-03-26T04:01:55.841Z,99611.19
2024-03-26T04:04:24.166Z,99610.56
2024-03-26T04:06:51.539Z,99607.28
2024-03-26T04:09:21.369Z,99608.50
2024-03-26T04:11:52.230Z,99609.53
2024-03-26T04:14:21.362Z,99608.31
2024-03-26T04:16:49.054Z,99606.25
2024-03-26T04:19:28.323Z,99605.84
2024-03-26T04:21:55.700Z,99598.47
2024-03-26T04:24:25.569Z,99590.66
2024-03-26T04:26:52.924Z,99590.03
2024-03-26T04:29:20.623Z,99593.94
2024-03-26T04:31:53.539Z,99587.78
2024-03-26T04:34:21.008Z,99589.22
2024-03-26T04:36:52.624Z,99581.63
2024-03-26T04:39:20.994Z,99580.81
2024-03-26T04:41:50.768Z,99581.44
2024-03-26T04:44:19.211Z,99583.06
2024-03-26T04:46:46.998Z,99573.63
2024-03-26T04:49:15.298Z,99567.28
2024-03-26T04:51:43.258Z,99563.81
2024-03-26T04:54:13.207Z,99563.63
2024-03-26T04:56:40.644Z,99561.78
2024-03-26T04:59:14.201Z,99562.00
2024-03-26T05:01:42.169Z,99560.38
2024-03-26T05:04:11.601Z,99549.28
2024-03-26T05:06:39.066Z,99547.66
2024-03-26T05:09:06.461Z,99549.72
2024-03-26T05:11:35.785Z,99556.69
2024-03-26T05:14:03.444Z,99549.72
2024-03-26T05:16:33.879Z,99552.38
2024-03-26T05:19:01.222Z,99547.25
2024-03-26T05:21:28.587Z,99548.69
2024-03-26T05:23:56.014Z,99546.22
2024-03-26T05:26:23.477Z,99547.69
2024-03-26T05:28:51.855Z,99553.00
2024-03-26T05:31:21.807Z,99551.56
2024-03-26T05:33:51.738Z,99547.28
2024-03-26T05:36:19.181Z,99544.19
2024-03-26T05:38:46.582Z,99549.94
2024-03-26T05:41:13.956Z,99539.28
2024-03-26T05:43:54.819Z,99541.94
2024-03-26T05:46:22.220Z,99548.69
2024-03-26T05:48:52.430Z,99543.97
2024-03-26T05:51:21.152Z,99538.84
2024-03-26T05:53:48.600Z,99534.97
2024-03-26T05:56:16.286Z,99536.81
2024-03-26T05:58:43.615Z,99535.78
2024-03-26T06:01:13.147Z,99536.81
2024-03-26T06:03:41.666Z,99529.44
2024-03-26T06:06:12.705Z,99529.22
2024-03-26T06:08:40.161Z,99533.94
2024-03-26T06:11:07.693Z,99522.25
2024-03-26T06:13:35.877Z,99522.47
2024-03-26T06:16:06.352Z,99513.25
2024-03-26T06:18:33.922Z,99514.44
2024-03-26T06:21:01.346Z,99506.66
2024-03-26T06:23:31.409Z,99506.03
2024-03-26T06:26:05.947Z,99511.16
2024-03-26T06:28:34.599Z,99520.16
2024-03-26T06:31:01.970Z,99517.28
2024-03-26T06:33:29.602Z,99511.94
2024-03-26T06:35:56.975Z,99516.44
2024-03-26T06:38:24.391Z,99512.31
2024-03-26T06:40:56.946Z,99510.63
2024-03-26T06:43:25.563Z,99512.28
2024-03-26T06:45:54.066Z,99507.75
2024-03-26T06:48:21.468Z,99502.81
2024-03-26T06:50:49.911Z,99505.84
2024-03-26T06:53:17.405Z,99494.50
2024-03-26T06:55:45.147Z,99502.69
2024-03-26T06:58:15.309Z,99500.13
2024-03-26T07:00:42.638Z,99505.78
2024-03-26T07:03:12.933Z,99499.78
2024-03-26T07:05:40.279Z,99490.63
2024-03-26T07:08:20.236Z,99496.91
2024-03-26T07:10:50.448Z,99493.13
2024-03-26T07:13:21.125Z,99494.44
2024-03-26T07:15:48.529Z,99487.22
2024-03-26T07:18:15.924Z,99482.66
2024-03-26T07:20:43.622Z,99481.97
2024-03-26T07:23:11.602Z,99475.78
2024-03-26T07:25:38.970Z,99477.84
2024-03-26T07:28:07.305Z,99461.59
2024-03-26T07:30:37.312Z,99457.19
2024-03-26T07:33:05.667Z,99456.28
2024-03-26T07:35:33.699Z,99440.84
2024-03-26T07:38:01.697Z,99454.00
2024-03-26T07:40:29.641Z,99443.16
2024-03-26T07:42:59.732Z,99439.00
2024-03-26T07:45:29.411Z,99435.97
2024-03-26T07:48:00.496Z,99441.97
2024-03-26T07:50:30.805Z,99432.69
2024-03-26T07:52:58.258Z,99429.88
2024-03-26T07:55:25.714Z,99431.59
2024-03-26T07:58:03.966Z,99428.41
2024-03-26T08:00:31.478Z,99424.84
2024-03-26T08:03:02.398Z,99416.97
2024-03-26T08:05:30.021Z,99416.09
2024-03-26T08:07:57.440Z,99406.59
2024-03-26T08:10:24.917Z,99401.88
2024-03-26T08:12:53.977Z,99405.78
2024-03-26T08:15:21.675Z,99406.19
2024-03-26T08:17:49.414Z,99403.81
2024-03-26T08:20:19.293Z,99397.78
2024-03-26T08:22:46.804Z,99396.03
2024-03-26T08:25:14.572Z,99399.03
2024-03-26T08:27:41.932Z,99400.06
2024-03-26T08:30:14.631Z,99397.13
2024-03-26T08:32:42.086Z,99384.16
2024-03-26T08:35:11.590Z,99383.66
2024-03-26T08:37:41.515Z,99376.66
2024-03-26T08:40:11.309Z,99371.28
2024-03-26T08:42:39.086Z,99371.00
2024-03-26T08:45:09.761Z,99365.31
2024-03-26T08:47:39.032Z,99361.78
2024-03-26T08:50:10.442Z,99358.81
2024-03-26T08:52:37.848Z,99360.41
2024-03-26T08:55:09.877Z,99361.47
2024-03-26T08:57:37.290Z,99363.94
2024-03-26T09:00:11.838Z,99366.91
2024-03-26T09:02:39.295Z,99367.13
2024-03-26T09:05:07.338Z,99362.78
2024-03-26T09:07:42.172Z,99358.13
2024-03-26T09:10:27.101Z,99350.81
2024-03-26T09:12:54.444Z,99344.06
2024-03-26T09:15:22.462Z,99343.53
2024-03-26T09:17:53.164Z,99340.31
2024-03-26T09:20:20.911Z,99340.28
2024-03-26T09:22:48.615Z,99342.97
2024-03-26T09:25:15.950Z,99339.44
2024-03-26T09:27:46.146Z,99333.00
2024-03-26T09:30:14.817Z,99338.38
2024-03-26T09:32:44.162Z,99337.66
2024-03-26T09:35:12.380Z,99333.59
2024-03-26T09:37:43.884Z,99333.34
2024-03-26T09:40:14.568Z,99337.66
2024-03-26T09:42:59.022Z,99340.34
2024-03-26T09:45:34.097Z,99332.41
2024-03-26T09:48:03.126Z,99326.97
2024-03-26T09:50:32.800Z,99321.03
2024-03-26T09:53:01.114Z,99318.25
2024-03-26T09:55:29.516Z,99319.78
2024-03-26T09:57:59.369Z,99319.75
2024-03-26T10:00:32.432Z,99318.97
2024-03-26T10:03:04.948Z,99305.47
2024-03-26T10:05:32.328Z,99300.09
2024-03-26T10:07:59.828Z,99293.63
2024-03-26T10:10:29.845Z,99294.66
2024-03-26T10:13:52.814Z,99289.28
2024-03-26T10:16:20.495Z,99286.00
2024-03-26T10:18:50.956Z,99296.56
2024-03-26T10:21:18.441Z,99292.53
2024-03-26T10:23:45.755Z,99279.56
2024-03-26T10:26:13.508Z,99281.19
2024-03-26T10:28:45.102Z,99279.06
2024-03-26T10:31:13.362Z,99280.13
2024-03-26T10:33:41.770Z,99275.25
2024-03-26T10:36:13.086Z,99279.06
2024-03-26T10:38:47.911Z,99280.69
2024-03-26T10:41:25.411Z,99279.59
2024-03-26T10:43:57.874Z,99272.03
2024-03-26T10:46:25.589Z,99259.63
2024-03-26T10:49:00.476Z,99258.53
2024-03-26T10:51:30.633Z,99256.38
2024-03-26T10:54:01.260Z,99255.31
2024-03-26T10:56:30.854Z,99252.41
2024-03-26T10:59:03.019Z,99244.03
2024-03-26T11:01:32.894Z,99254.50
2024-03-26T11:04:01.668Z,99248.34
2024-03-26T11:06:30.451Z,99241.59
2024-03-26T11:08:58.874Z,99248.09
2024-03-26T11:11:26.246Z,99241.09
2024-03-26T11:13:57.897Z,99244.09
2024-03-26T11:16:40.186Z,99236.53
2024-03-26T11:19:18.982Z,99241.72
2024-03-26T11:21:51.605Z,99232.88
2024-03-26T11:24:26.168Z,99233.72
2024-03-26T11:26:53.590Z,99239.69
2024-03-26T11:29:20.935Z,99234.00
2024-03-26T11:31:51.652Z,99228.63
2024-03-26T11:34:22.270Z,99217.03
2024-03-26T11:36:53.386Z,99229.44
2024-03-26T11:39:23.736Z,99221.88
2024-03-26T11:41:52.035Z,99217.56
2024-03-26T11:44:19.977Z,99215.66
2024-03-26T11:46:50.202Z,99208.38
2024-03-26T11:49:17.598Z,99209.75
2024-03-26T11:51:45.992Z,99198.94
2024-03-26T11:54:17.557Z,99193.53
2024-03-26T11:56:45.178Z,99180.78
2024-03-26T11:59:12.579Z,99183.22
2024-03-26T12:01:40.328Z,99184.88
2024-03-26T12:04:11.171Z,99176.47
2024-03-26T12:06:38.592Z,99179.47
2024-03-26T12:09:07.505Z,99181.34
2024-03-26T12:11:35.118Z,99167.56
2024-03-26T12:14:03.559Z,99168.38
2024-03-26T12:16:31.559Z,99162.69
2024-03-26T12:18:59.147Z,99163.22
2024-03-26T12:21:29.006Z,99165.41
2024-03-26T12:23:58.212Z,99171.63
2024-03-26T12:26:25.610Z,99162.16
2024-03-26T12:28:52.961Z,99158.38
2024-03-26T12:31:22.533Z,99158.06
2024-03-26T12:33:49.965Z,99147.00
2024-03-26T12:36:17.365Z,99152.94
2024-03-26T12:38:47.844Z,99148.63
2024-03-26T12:41:15.290Z,99144.28
2024-03-26T12:43:42.655Z,99147.53
2024-03-26T12:46:09.984Z,99146.19
2024-03-26T12:48:37.383Z,99144.00
2024-03-26T12:51:05.178Z,99140.50
2024-03-26T12:53:32.569Z,99133.75
2024-03-26T12:56:02.403Z,99134.56
2024-03-26T12:58:29.833Z,99126.97
2024-03-26T13:00:57.317Z,99128.31
2024-03-26T13:03:24.708Z,99120.22
2024-03-26T13:05:52.086Z,99115.09
2024-03-26T13:08:19.471Z,99111.31
2024-03-26T13:10:49.963Z,99111.56
2024-03-26T13:13:20.218Z,99113.47
2024-03-26T13:15:48.765Z,99107.50
2024-03-26T13:18:16.090Z,99106.16
2024-03-26T13:20:43.491Z,99105.34
2024-03-26T13:23:10.934Z,99114.28
2024-03-26T13:25:38.311Z,99105.34
2024-03-26T13:28:06.084Z,99113.47
2024-03-26T13:30:41.263Z,99115.91
2024-03-26T13:33:12.914Z,99102.91
2024-03-26T13:35:40.348Z,99106.97
2024-03-26T13:38:10.344Z,99099.66
2024-03-26T13:40:50.101Z,99093.41
2024-03-26T13:43:20.822Z,99096.34
2024-03-26T13:45:51.567Z,99100.41
2024-03-26T13:48:19.922Z,99085.22
2024-03-26T13:50:48.120Z,99089.53
2024-03-26T13:53:16.063Z,99083.81
2024-03-26T13:55:44.052Z,99082.44
2024-03-26T13:58:11.602Z,99075.41
2024-03-26T14:00:39.686Z,99080.28
2024-03-26T14:03:09.687Z,99071.34
2024-03-26T14:05:37.205Z,99060.78
2024-03-26T14:08:05.092Z,99061.88
2024-03-26T14:10:32.333Z,99062.13
2024-03-26T14:12:59.632Z,99052.09
2024-03-26T14:15:27.734Z,99056.72
2024-03-26T14:17:55.056Z,99048.09
2024-03-26T14:20:24.938Z,99050.25
2024-03-26T14:22:52.249Z,99044.34
2024-03-26T14:25:19.589Z,99047.84
2024-03-26T14:27:47.430Z,99047.28
2024-03-26T14:30:15.851Z,99044.59
2024-03-26T14:32:43.698Z,99039.19
2024-03-26T14:35:12.984Z,99034.88
2024-03-26T14:37:49.241Z,99027.84
2024-03-26T14:40:17.035Z,99024.06
2024-03-26T14:42:44.417Z,99016.81
2024-03-26T14:45:13.464Z,99014.38
2024-03-26T14:47:41.684Z,99011.94
2024-03-26T14:50:11.631Z,99009.81
2024-03-26T14:52:38.991Z,99001.72
2024-03-26T14:55:09.544Z,99006.03
2024-03-26T14:57:36.971Z,98992.78
2024-03-26T15:00:12.151Z,98992.28
2024-03-26T15:02:39.576Z,98987.44
2024-03-26T15:05:09.360Z,98982.03
2024-03-26T15:07:37.323Z,98993.09
2024-03-26T15:10:05.961Z,98986.09
2024-03-26T15:12:36.066Z,98980.72
2024-03-26T15:15:04.909Z,98979.34
2024-03-26T15:17:32.681Z,98972.31
2024-03-26T15:20:02.709Z,98964.22
2024-03-26T15:22:30.508Z,98970.44
2024-03-26T15:24:59.300Z,98960.75
2024-03-26T15:27:26.680Z,98966.47
2024-03-26T15:30:14.960Z,98960.53
2024-03-26T15:32:42.486Z,98947.84
2024-03-26T15:35:09.930Z,98952.72
2024-03-26T15:37:38.717Z,98951.91
2024-03-26T15:40:09.149Z,98946.81
2024-03-26T15:42:37.717Z,98950.28
2024-03-26T15:45:09.501Z,98948.69
2024-03-26T15:47:36.891Z,98947.59
2024-03-26T15:50:06.809Z,98939.22
2024-03-26T15:52:34.494Z,98938.41
2024-03-26T15:55:01.945Z,98941.38
2024-03-26T15:57:29.397Z,98940.28
2024-03-26T15:59:56.769Z,98935.16
2024-03-26T16:02:26.919Z,98933.25
2024-03-26T16:04:54.353Z,98918.66
2024-03-26T16:07:22.191Z,98917.28
2024-03-26T16:10:04.234Z,98915.44
2024-03-26T16:12:36.990Z,98909.22
2024-03-26T16:15:05.449Z,98903.81
2024-03-26T16:17:35.323Z,98899.75
2024-03-26T16:20:03.796Z,98888.41
2024-03-26T16:22:31.307Z,98898.94
2024-03-26T16:24:58.743Z,98879.75
2024-03-26T16:27:26.543Z,98884.88
2024-03-26T16:29:55.046Z,98890.88
2024-03-26T16:32:23.110Z,98882.50
2024-03-26T16:34:53.065Z,98882.22
2024-03-26T16:37:20.467Z,98878.13
2024-03-26T16:39:47.719Z,98887.66
2024-03-26T16:42:14.985Z,98887.91
2024-03-26T16:44:42.376Z,98885.19
2024-03-26T16:47:10.073Z,98885.75
2024-03-26T16:49:37.388Z,98885.19
2024-03-26T16:52:08.336Z,98889.25
2024-03-26T16:54:35.804Z,98890.38
2024-03-26T16:57:04.957Z,98885.53
2024-03-26T16:59:32.313Z,98884.97
2024-03-26T17:01:59.738Z,98882.28
2024-03-26T17:04:27.074Z,98884.19
2024-03-26T17:06:54.421Z,98874.47
2024-03-26T17:09:24.893Z,98875.84
2024-03-26T17:11:52.247Z,98872.09
2024-03-26T17:14:19.601Z,98870.47
2024-03-26T17:17:05.120Z,98868.88
2024-03-26T17:19:37.588Z,98871.03
2024-03-26T17:22:06.514Z,98878.63
2024-03-26T17:24:36.370Z,98870.00
2024-03-26T17:27:04.609Z,98870.00
2024-03-26T17:29:31.982Z,98867.31
2024-03-26T17:31:59.355Z,98867.59
2024-03-26T17:34:26.795Z,98869.47
2024-03-26T17:36:54.366Z,98854.13
2024-03-26T17:39:21.933Z,98853.88
2024-03-26T17:41:51.794Z,98850.09
2024-03-26T17:44:19.305Z,98853.31
2024-03-26T17:46:47.657Z,98850.59
2024-03-26T17:49:15.248Z,98860.59
2024-03-26T17:51:42.620Z,98859.25
2024-03-26T17:54:10.000Z,98852.50
2024-03-26T17:56:37.387Z,98843.59
2024-03-26T17:59:07.789Z,98847.09
2024-03-26T18:01:35.613Z,98846.28
2024-03-26T18:04:03.020Z,98845.25
2024-03-26T18:06:30.357Z,98844.69
2024-03-26T18:08:57.763Z,98845.22
2024-03-26T18:11:25.089Z,98846.31
2024-03-26T18:13:52.446Z,98848.47
2024-03-26T18:16:23.006Z,98847.38
2024-03-26T18:18:50.689Z,98852.22
2024-03-26T18:21:18.052Z,98850.59
2024-03-26T18:23:45.396Z,98864.63
2024-03-26T18:26:12.806Z,98861.94
2024-03-26T18:28:40.199Z,98851.16
2024-03-26T18:31:07.602Z,98850.59
2024-03-26T18:33:38.397Z,98836.59
2024-03-26T18:36:06.343Z,98834.41
2024-03-26T18:38:35.766Z,98835.78
2024-03-26T18:41:06.617Z,98841.44
2024-03-26T18:43:35.274Z,98834.16
2024-03-26T18:46:09.566Z,98842.78
2024-03-26T18:48:39.954Z,98834.41
2024-03-26T18:51:07.666Z,98845.19
2024-03-26T18:53:39.489Z,98839.00
2024-03-26T18:56:09.813Z,98823.09
2024-03-26T18:58:39.051Z,98820.94
2024-03-26T19:01:13.290Z,98823.09
2024-03-26T19:03:43.900Z,98827.66
2024-03-26T19:06:11.307Z,98825.78
2024-03-26T19:08:39.019Z,98820.13
2024-03-26T19:11:06.737Z,98824.97
2024-03-26T19:13:34.463Z,98820.94
2024-03-26T19:16:02.345Z,98824.97
2024-03-26T19:18:32.726Z,98826.59
2024-03-26T19:21:04.806Z,98817.44
2024-03-26T19:23:32.496Z,98820.94
2024-03-26T19:26:01.114Z,98823.66
2024-03-26T19:28:28.741Z,98830.09
2024-03-26T19:30:56.952Z,98817.16
2024-03-26T19:33:24.502Z,98812.31
2024-03-26T19:35:58.950Z,98812.84
2024-03-26T19:38:29.119Z,98810.69
2024-03-26T19:40:58.318Z,98802.59
2024-03-26T19:43:26.108Z,98805.31
2024-03-26T19:46:00.890Z,98809.06
2024-03-26T19:48:28.246Z,98801.00
2024-03-26T19:50:56.347Z,98793.97
2024-03-26T19:53:24.626Z,98793.97
2024-03-26T19:56:00.149Z,98787.25
2024-03-26T19:58:29.259Z,98792.34
2024-03-26T20:01:01.985Z,98789.13
2024-03-26T20:03:29.842Z,98784.00
2024-03-26T20:06:00.604Z,98787.50
2024-03-26T20:08:28.176Z,98789.66
2024-03-26T20:10:58.331Z,98778.88
2024-03-26T20:13:25.735Z,98785.88
2024-03-26T20:15:53.636Z,98778.34
2024-03-26T20:18:21.249Z,98779.69
2024-03-26T20:20:53.649Z,98779.97
2024-03-26T20:23:21.104Z,98776.72
2024-03-26T20:25:48.829Z,98783.19
2024-03-26T20:28:18.691Z,98772.97
2024-03-26T20:30:46.079Z,98771.63
2024-03-26T20:33:14.904Z,98772.41
2024-03-26T20:35:42.366Z,98770.53
2024-03-26T20:38:09.900Z,98778.63
2024-03-26T20:40:44.472Z,98771.34
2024-03-26T20:43:13.521Z,98767.56
2024-03-26T20:45:43.537Z,98776.19
2024-03-26T20:48:11.123Z,98772.97
2024-03-26T20:50:38.492Z,98771.88
2024-03-26T20:53:06.396Z,98768.13
2024-03-26T20:55:36.299Z,98767.56
2024-03-26T20:58:05.475Z,98771.63
2024-03-26T21:00:35.164Z,98769.19
2024-03-26T21:03:05.967Z,98771.88
2024-03-26T21:05:33.505Z,98756.78
2024-03-26T21:08:01.679Z,98756.78
2024-03-26T21:10:31.447Z,98758.13
2024-03-26T21:12:59.711Z,98757.59
2024-03-26T21:15:29.354Z,98755.72
2024-03-26T21:18:00.040Z,98754.09
2024-03-26T21:20:32.936Z,98737.94
2024-03-26T21:23:00.408Z,98736.31
2024-03-26T21:25:27.880Z,98741.69
2024-03-26T21:27:56.223Z,98736.84
2024-03-26T21:30:23.681Z,98736.03
2024-03-26T21:32:51.130Z,98727.16
2024-03-26T21:35:18.786Z,98724.44
2024-03-26T21:37:48.794Z,98717.44
2024-03-26T21:40:17.067Z,98717.44
2024-03-26T21:42:48.845Z,98720.13
2024-03-26T21:45:17.736Z,98712.06
2024-03-26T21:47:45.661Z,98707.75
2024-03-26T21:50:13.950Z,98708.00
2024-03-26T21:52:41.429Z,98698.03
2024-03-26T21:55:12.984Z,98701.31
2024-03-26T21:57:41.350Z,98697.25
2024-03-26T22:00:12.686Z,98691.59
2024-03-26T22:02:40.978Z,98696.44
2024-03-26T22:05:08.864Z,98693.72
2024-03-26T22:07:36.339Z,98688.88
2024-03-26T22:10:05.894Z,98682.41
2024-03-26T22:12:35.909Z,98679.72
2024-03-26T22:15:03.810Z,98678.09
2024-03-26T22:17:31.343Z,98673.25
2024-03-26T22:19:59.237Z,98677.56
2024-03-26T22:22:26.878Z,98672.72
2024-03-26T22:24:54.391Z,98665.16
2024-03-26T22:27:23.133Z,98676.75
2024-03-26T22:29:53.355Z,98670.00
2024-03-26T22:32:22.144Z,98664.63
2024-03-26T22:34:49.777Z,98665.97
2024-03-26T22:37:17.321Z,98665.44
2024-03-26T22:39:44.952Z,98666.25
2024-03-26T22:42:12.495Z,98667.59
2024-03-26T22:44:40.005Z,98666.22
2024-03-26T22:47:10.017Z,98665.41
2024-03-26T22:49:37.521Z,98654.91
2024-03-26T22:52:06.376Z,98660.81
2024-03-26T22:54:33.985Z,98657.84
2024-03-26T22:57:01.520Z,98660.81
2024-03-26T22:59:29.070Z,98663.50
2024-03-26T23:01:56.572Z,98657.31
2024-03-26T23:04:26.566Z,98658.88
2024-03-26T23:06:54.420Z,98647.00
2024-03-26T23:09:22.611Z,98656.69
2024-03-26T23:11:50.109Z,98644.81
2024-03-26T23:14:17.675Z,98644.56
2024-03-26T23:16:45.326Z,98639.69
2024-03-26T23:19:12.898Z,98637.25
2024-03-26T23:21:43.520Z,98636.47
2024-03-26T23:24:11.037Z,98638.91
2024-03-26T23:26:38.558Z,98636.75
2024-03-26T23:29:06.035Z,98628.94
2024-03-26T23:31:33.599Z,98626.78
2024-03-26T23:34:01.111Z,98639.47
2024-03-26T23:36:28.611Z,98629.47
2024-03-26T23:38:59.177Z,98629.47
2024-03-26T23:41:26.670Z,98623.00
2024-03-26T23:43:54.185Z,98618.13
2024-03-26T23:46:21.943Z,98623.25
2024-03-26T23:48:49.660Z,98619.75
2024-03-26T23:51:17.254Z,98614.34
2024-03-26T23:53:45.749Z,98624.88
2024-03-26T23:56:15.743Z,98626.25
2024-03-26T23:58:43.809Z,98623.81
